sensor_id;sensor_type;location;lat;lon;timestamp;P1;durP1;ratioP1;P2;durP2;ratioP2
10715;SDS011;5409;42.620;23.316;2023-03-03T00:00:53;6.78;;;5.45;;
10715;SDS011;5409;42.620;23.316;2023-03-03T00:03:20;6.55;;;4.70;;
10715;SDS011;5409;42.620;23.316;2023-03-03T00:05:47;8.23;;;4.70;;
10715;SDS011;5409;42.620;23.316;2023-03-03T00:08:13;8.38;;;4.68;;
10715;SDS011;5409;42.620;23.316;2023-03-03T00:10:40;9.98;;;5.88;;
10715;SDS011;5409;42.620;23.316;2023-03-03T00:13:12;28.92;;;13.98;;
10715;SDS011;5409;42.620;23.316;2023-03-03T00:15:40;12.57;;;7.18;;
10715;SDS011;5409;42.620;23.316;2023-03-03T00:18:11;17.67;;;8.05;;
10715;SDS011;5409;42.620;23.316;2023-03-03T00:20:45;8.25;;;5.38;;
10715;SDS011;5409;42.620;23.316;2023-03-03T00:23:15;6.32;;;4.13;;
10715;SDS011;5409;42.620;23.316;2023-03-03T00:25:42;5.30;;;4.05;;
10715;SDS011;5409;42.620;23.316;2023-03-03T00:28:17;4.88;;;3.90;;
10715;SDS011;5409;42.620;23.316;2023-03-03T00:30:45;5.47;;;3.83;;
10715;SDS011;5409;42.620;23.316;2023-03-03T00:33:13;4.72;;;4.13;;
10715;SDS011;5409;42.620;23.316;2023-03-03T00:35:44;5.45;;;3.72;;
10715;SDS011;5409;42.620;23.316;2023-03-03T00:38:11;5.53;;;4.20;;
10715;SDS011;5409;42.620;23.316;2023-03-03T00:40:39;5.97;;;4.53;;
10715;SDS011;5409;42.620;23.316;2023-03-03T00:43:11;4.93;;;3.72;;
10715;SDS011;5409;42.620;23.316;2023-03-03T00:45:41;4.50;;;4.10;;
10715;SDS011;5409;42.620;23.316;2023-03-03T00:48:15;6.72;;;4.70;;
10715;SDS011;5409;42.620;23.316;2023-03-03T00:50:44;8.50;;;4.45;;
10715;SDS011;5409;42.620;23.316;2023-03-03T00:53:11;6.88;;;4.50;;
10715;SDS011;5409;42.620;23.316;2023-03-03T00:55:38;6.88;;;5.32;;
10715;SDS011;5409;42.620;23.316;2023-03-03T00:58:05;5.80;;;4.70;;
10715;SDS011;5409;42.620;23.316;2023-03-03T01:00:32;7.68;;;4.72;;
10715;SDS011;5409;42.620;23.316;2023-03-03T01:03:01;7.38;;;4.70;;
10715;SDS011;5409;42.620;23.316;2023-03-03T01:05:27;13.43;;;7.32;;
10715;SDS011;5409;42.620;23.316;2023-03-03T01:07:54;16.40;;;7.28;;
10715;SDS011;5409;42.620;23.316;2023-03-03T01:10:20;17.67;;;8.35;;
10715;SDS011;5409;42.620;23.316;2023-03-03T01:12:47;10.90;;;6.20;;
10715;SDS011;5409;42.620;23.316;2023-03-03T01:15:14;6.78;;;4.85;;
10715;SDS011;5409;42.620;23.316;2023-03-03T01:17:41;7.55;;;4.63;;
10715;SDS011;5409;42.620;23.316;2023-03-03T01:20:10;4.82;;;4.15;;
10715;SDS011;5409;42.620;23.316;2023-03-03T01:22:38;6.95;;;4.03;;
10715;SDS011;5409;42.620;23.316;2023-03-03T01:25:05;3.97;;;3.58;;
10715;SDS011;5409;42.620;23.316;2023-03-03T01:27:32;5.35;;;4.78;;
10715;SDS011;5409;42.620;23.316;2023-03-03T01:29:59;5.18;;;3.95;;
10715;SDS011;5409;42.620;23.316;2023-03-03T01:32:26;4.55;;;4.00;;
10715;SDS011;5409;42.620;23.316;2023-03-03T01:34:53;5.07;;;4.25;;
10715;SDS011;5409;42.620;23.316;2023-03-03T01:37:20;5.47;;;4.30;;
10715;SDS011;5409;42.620;23.316;2023-03-03T01:39:48;4.47;;;3.88;;
10715;SDS011;5409;42.620;23.316;2023-03-03T01:42:14;6.32;;;4.57;;
10715;SDS011;5409;42.620;23.316;2023-03-03T01:44:41;6.03;;;4.40;;
10715;SDS011;5409;42.620;23.316;2023-03-03T01:47:08;7.38;;;4.88;;
10715;SDS011;5409;42.620;23.316;2023-03-03T01:49:38;7.22;;;5.38;;
10715;SDS011;5409;42.620;23.316;2023-03-03T01:52:09;6.57;;;5.38;;
10715;SDS011;5409;42.620;23.316;2023-03-03T01:54:39;7.40;;;5.90;;
10715;SDS011;5409;42.620;23.316;2023-03-03T01:57:08;8.45;;;6.00;;
10715;SDS011;5409;42.620;23.316;2023-03-03T01:59:36;7.85;;;5.57;;
10715;SDS011;5409;42.620;23.316;2023-03-03T02:02:06;8.32;;;6.05;;
10715;SDS011;5409;42.620;23.316;2023-03-03T02:04:33;8.60;;;6.07;;
10715;SDS011;5409;42.620;23.316;2023-03-03T02:07:01;7.38;;;5.63;;
10715;SDS011;5409;42.620;23.316;2023-03-03T02:09:31;8.68;;;6.03;;
10715;SDS011;5409;42.620;23.316;2023-03-03T02:12:01;7.93;;;5.78;;
10715;SDS011;5409;42.620;23.316;2023-03-03T02:14:28;8.60;;;5.80;;
10715;SDS011;5409;42.620;23.316;2023-03-03T02:16:55;8.38;;;6.35;;
10715;SDS011;5409;42.620;23.316;2023-03-03T02:19:24;8.73;;;6.10;;
10715;SDS011;5409;42.620;23.316;2023-03-03T02:21:57;7.65;;;6.05;;
10715;SDS011;5409;42.620;23.316;2023-03-03T02:24:26;7.97;;;6.25;;
10715;SDS011;5409;42.620;23.316;2023-03-03T02:26:55;8.35;;;5.82;;
10715;SDS011;5409;42.620;23.316;2023-03-03T02:29:22;7.93;;;5.43;;
10715;SDS011;5409;42.620;23.316;2023-03-03T02:31:48;5.95;;;4.82;;
10715;SDS011;5409;42.620;23.316;2023-03-03T02:34:15;7.93;;;6.03;;
10715;SDS011;5409;42.620;23.316;2023-03-03T02:36:42;6.07;;;5.07;;
10715;SDS011;5409;42.620;23.316;2023-03-03T02:39:09;10.15;;;5.60;;
10715;SDS011;5409;42.620;23.316;2023-03-03T02:41:38;7.45;;;5.70;;
10715;SDS011;5409;42.620;23.316;2023-03-03T02:44:07;5.40;;;4.82;;
10715;SDS011;5409;42.620;23.316;2023-03-03T02:46:35;7.30;;;5.70;;
10715;SDS011;5409;42.620;23.316;2023-03-03T02:49:02;6.43;;;5.07;;
10715;SDS011;5409;42.620;23.316;2023-03-03T02:51:28;6.70;;;5.18;;
10715;SDS011;5409;42.620;23.316;2023-03-03T02:53:55;9.20;;;5.90;;
10715;SDS011;5409;42.620;23.316;2023-03-03T02:56:22;7.53;;;5.47;;
10715;SDS011;5409;42.620;23.316;2023-03-03T02:58:48;8.77;;;6.00;;
10715;SDS011;5409;42.620;23.316;2023-03-03T03:01:16;8.73;;;5.43;;
10715;SDS011;5409;42.620;23.316;2023-03-03T03:03:42;7.88;;;5.47;;
10715;SDS011;5409;42.620;23.316;2023-03-03T03:06:09;6.82;;;5.32;;
10715;SDS011;5409;42.620;23.316;2023-03-03T03:08:36;10.25;;;6.32;;
10715;SDS011;5409;42.620;23.316;2023-03-03T03:11:03;7.93;;;6.32;;
10715;SDS011;5409;42.620;23.316;2023-03-03T03:13:30;5.70;;;5.05;;
10715;SDS011;5409;42.620;23.316;2023-03-03T03:15:56;6.82;;;5.18;;
10715;SDS011;5409;42.620;23.316;2023-03-03T03:18:25;6.97;;;5.40;;
10715;SDS011;5409;42.620;23.316;2023-03-03T03:20:52;8.07;;;5.32;;
10715;SDS011;5409;42.620;23.316;2023-03-03T03:23:18;7.30;;;5.28;;
10715;SDS011;5409;42.620;23.316;2023-03-03T03:25:46;6.78;;;4.93;;
10715;SDS011;5409;42.620;23.316;2023-03-03T03:28:13;6.25;;;5.20;;
10715;SDS011;5409;42.620;23.316;2023-03-03T03:30:40;7.22;;;5.20;;
10715;SDS011;5409;42.620;23.316;2023-03-03T03:33:08;5.30;;;4.55;;
10715;SDS011;5409;42.620;23.316;2023-03-03T03:35:36;7.93;;;5.43;;
10715;SDS011;5409;42.620;23.316;2023-03-03T03:38:04;7.30;;;5.32;;
10715;SDS011;5409;42.620;23.316;2023-03-03T03:40:31;7.03;;;5.13;;
10715;SDS011;5409;42.620;23.316;2023-03-03T03:42:57;8.02;;;5.05;;
10715;SDS011;5409;42.620;23.316;2023-03-03T03:45:24;7.13;;;5.28;;
10715;SDS011;5409;42.620;23.316;2023-03-03T03:47:50;7.47;;;5.25;;
10715;SDS011;5409;42.620;23.316;2023-03-03T03:50:17;6.57;;;4.95;;
10715;SDS011;5409;42.620;23.316;2023-03-03T03:52:45;6.90;;;5.28;;
10715;SDS011;5409;42.620;23.316;2023-03-03T03:55:11;7.50;;;5.50;;
10715;SDS011;5409;42.620;23.316;2023-03-03T03:57:39;7.78;;;5.20;;
10715;SDS011;5409;42.620;23.316;2023-03-03T04:00:06;7.85;;;5.40;;
10715;SDS011;5409;42.620;23.316;2023-03-03T04:02:32;7.25;;;5.22;;
10715;SDS011;5409;42.620;23.316;2023-03-03T04:04:59;6.25;;;4.82;;
10715;SDS011;5409;42.620;23.316;2023-03-03T04:07:25;7.80;;;5.60;;
10715;SDS011;5409;42.620;23.316;2023-03-03T04:09:53;6.38;;;5.38;;
10715;SDS011;5409;42.620;23.316;2023-03-03T04:12:20;8.40;;;5.43;;
10715;SDS011;5409;42.620;23.316;2023-03-03T04:14:46;7.45;;;5.95;;
10715;SDS011;5409;42.620;23.316;2023-03-03T04:17:14;6.60;;;5.20;;
10715;SDS011;5409;42.620;23.316;2023-03-03T04:19:41;7.65;;;5.90;;
10715;SDS011;5409;42.620;23.316;2023-03-03T04:22:07;10.00;;;5.75;;
10715;SDS011;5409;42.620;23.316;2023-03-03T04:24:34;7.07;;;5.63;;
10715;SDS011;5409;42.620;23.316;2023-03-03T04:27:02;8.05;;;5.65;;
10715;SDS011;5409;42.620;23.316;2023-03-03T04:29:28;8.05;;;6.15;;
10715;SDS011;5409;42.620;23.316;2023-03-03T04:31:55;7.97;;;5.75;;
10715;SDS011;5409;42.620;23.316;2023-03-03T04:34:21;9.43;;;6.05;;
10715;SDS011;5409;42.620;23.316;2023-03-03T04:36:48;7.28;;;6.15;;
10715;SDS011;5409;42.620;23.316;2023-03-03T04:39:15;9.23;;;5.95;;
10715;SDS011;5409;42.620;23.316;2023-03-03T04:41:41;8.40;;;5.80;;
10715;SDS011;5409;42.620;23.316;2023-03-03T04:44:09;9.52;;;6.28;;
10715;SDS011;5409;42.620;23.316;2023-03-03T04:46:35;7.60;;;5.93;;
10715;SDS011;5409;42.620;23.316;2023-03-03T04:49:02;10.65;;;6.63;;
10715;SDS011;5409;42.620;23.316;2023-03-03T04:51:32;9.95;;;6.47;;
10715;SDS011;5409;42.620;23.316;2023-03-03T04:53:58;11.20;;;6.90;;
10715;SDS011;5409;42.620;23.316;2023-03-03T04:56:25;9.07;;;6.63;;
10715;SDS011;5409;42.620;23.316;2023-03-03T04:58:52;10.25;;;6.10;;
10715;SDS011;5409;42.620;23.316;2023-03-03T05:01:20;7.15;;;5.85;;
10715;SDS011;5409;42.620;23.316;2023-03-03T05:03:46;9.40;;;7.45;;
10715;SDS011;5409;42.620;23.316;2023-03-03T05:06:13;10.30;;;6.82;;
10715;SDS011;5409;42.620;23.316;2023-03-03T05:08:40;9.57;;;7.10;;
10715;SDS011;5409;42.620;23.316;2023-03-03T05:11:07;9.98;;;7.55;;
10715;SDS011;5409;42.620;23.316;2023-03-03T05:13:33;10.75;;;7.00;;
10715;SDS011;5409;42.620;23.316;2023-03-03T05:16:00;11.20;;;7.97;;
10715;SDS011;5409;42.620;23.316;2023-03-03T05:18:28;10.98;;;8.00;;
10715;SDS011;5409;42.620;23.316;2023-03-03T05:20:54;11.27;;;7.90;;
10715;SDS011;5409;42.620;23.316;2023-03-03T05:23:21;11.40;;;8.10;;
10715;SDS011;5409;42.620;23.316;2023-03-03T05:25:48;11.07;;;7.97;;
10715;SDS011;5409;42.620;23.316;2023-03-03T05:28:14;9.52;;;6.72;;
10715;SDS011;5409;42.620;23.316;2023-03-03T05:30:41;10.23;;;7.32;;
10715;SDS011;5409;42.620;23.316;2023-03-03T05:33:09;9.25;;;7.03;;
10715;SDS011;5409;42.620;23.316;2023-03-03T05:35:39;10.45;;;6.88;;
10715;SDS011;5409;42.620;23.316;2023-03-03T05:38:05;9.70;;;7.03;;
10715;SDS011;5409;42.620;23.316;2023-03-03T05:40:32;8.98;;;5.90;;
10715;SDS011;5409;42.620;23.316;2023-03-03T05:42:58;8.43;;;6.10;;
10715;SDS011;5409;42.620;23.316;2023-03-03T05:45:25;8.32;;;5.70;;
10715;SDS011;5409;42.620;23.316;2023-03-03T05:47:52;7.63;;;6.47;;
10715;SDS011;5409;42.620;23.316;2023-03-03T05:50:19;7.68;;;6.22;;
10715;SDS011;5409;42.620;23.316;2023-03-03T05:52:48;8.43;;;5.97;;
10715;SDS011;5409;42.620;23.316;2023-03-03T05:55:14;6.95;;;5.45;;
10715;SDS011;5409;42.620;23.316;2023-03-03T05:57:41;7.25;;;5.72;;
10715;SDS011;5409;42.620;23.316;2023-03-03T06:00:08;7.90;;;5.38;;
10715;SDS011;5409;42.620;23.316;2023-03-03T06:02:34;8.13;;;5.47;;
10715;SDS011;5409;42.620;23.316;2023-03-03T06:05:01;8.02;;;5.47;;
10715;SDS011;5409;42.620;23.316;2023-03-03T06:07:27;8.15;;;5.85;;
10715;SDS011;5409;42.620;23.316;2023-03-03T06:09:55;6.28;;;5.20;;
10715;SDS011;5409;42.620;23.316;2023-03-03T06:12:22;7.20;;;5.85;;
10715;SDS011;5409;42.620;23.316;2023-03-03T06:14:48;11.07;;;7.05;;
10715;SDS011;5409;42.620;23.316;2023-03-03T06:17:15;11.82;;;8.70;;
10715;SDS011;5409;42.620;23.316;2023-03-03T06:19:41;8.38;;;6.43;;
10715;SDS011;5409;42.620;23.316;2023-03-03T06:22:08;7.88;;;6.43;;
10715;SDS011;5409;42.620;23.316;2023-03-03T06:24:34;7.38;;;6.57;;
10715;SDS011;5409;42.620;23.316;2023-03-03T06:27:02;9.02;;;6.32;;
10715;SDS011;5409;42.620;23.316;2023-03-03T06:29:29;7.53;;;6.20;;
10715;SDS011;5409;42.620;23.316;2023-03-03T06:31:55;6.78;;;5.65;;
10715;SDS011;5409;42.620;23.316;2023-03-03T06:34:22;9.40;;;6.47;;
10715;SDS011;5409;42.620;23.316;2023-03-03T06:36:48;6.93;;;5.63;;
10715;SDS011;5409;42.620;23.316;2023-03-03T06:39:15;6.68;;;5.68;;
10715;SDS011;5409;42.620;23.316;2023-03-03T06:41:41;8.50;;;5.90;;
10715;SDS011;5409;42.620;23.316;2023-03-03T06:44:09;8.00;;;6.60;;
10715;SDS011;5409;42.620;23.316;2023-03-03T06:46:36;8.25;;;6.40;;
10715;SDS011;5409;42.620;23.316;2023-03-03T06:49:02;8.10;;;6.22;;
10715;SDS011;5409;42.620;23.316;2023-03-03T06:51:29;9.07;;;7.00;;
10715;SDS011;5409;42.620;23.316;2023-03-03T06:53:57;9.38;;;7.30;;
10715;SDS011;5409;42.620;23.316;2023-03-03T06:56:25;10.00;;;7.07;;
10715;SDS011;5409;42.620;23.316;2023-03-03T06:58:52;7.38;;;6.53;;
10715;SDS011;5409;42.620;23.316;2023-03-03T07:01:20;8.38;;;6.43;;
10715;SDS011;5409;42.620;23.316;2023-03-03T07:03:47;8.02;;;6.53;;
10715;SDS011;5409;42.620;23.316;2023-03-03T07:06:15;9.80;;;7.13;;
10715;SDS011;5409;42.620;23.316;2023-03-03T07:08:44;13.63;;;8.77;;
10715;SDS011;5409;42.620;23.316;2023-03-03T07:11:11;12.90;;;8.50;;
10715;SDS011;5409;42.620;23.316;2023-03-03T07:13:41;11.95;;;7.68;;
10715;SDS011;5409;42.620;23.316;2023-03-03T07:16:10;9.82;;;7.65;;
10715;SDS011;5409;42.620;23.316;2023-03-03T07:18:39;10.57;;;7.70;;
10715;SDS011;5409;42.620;23.316;2023-03-03T07:21:13;12.30;;;9.05;;
10715;SDS011;5409;42.620;23.316;2023-03-03T07:23:41;10.98;;;8.10;;
10715;SDS011;5409;42.620;23.316;2023-03-03T07:26:09;9.43;;;6.88;;
10715;SDS011;5409;42.620;23.316;2023-03-03T07:28:37;9.77;;;7.53;;
10715;SDS011;5409;42.620;23.316;2023-03-03T07:31:14;8.18;;;6.75;;
10715;SDS011;5409;42.620;23.316;2023-03-03T07:33:43;7.43;;;6.10;;
10715;SDS011;5409;42.620;23.316;2023-03-03T07:36:20;10.68;;;7.60;;
10715;SDS011;5409;42.620;23.316;2023-03-03T07:38:48;9.60;;;7.60;;
10715;SDS011;5409;42.620;23.316;2023-03-03T07:41:16;9.25;;;6.88;;
10715;SDS011;5409;42.620;23.316;2023-03-03T07:43:47;11.48;;;8.93;;
10715;SDS011;5409;42.620;23.316;2023-03-03T07:46:20;10.55;;;8.50;;
10715;SDS011;5409;42.620;23.316;2023-03-03T07:48:49;11.38;;;9.02;;
10715;SDS011;5409;42.620;23.316;2023-03-03T07:51:18;11.35;;;9.18;;
10715;SDS011;5409;42.620;23.316;2023-03-03T07:53:46;11.57;;;9.32;;
10715;SDS011;5409;42.620;23.316;2023-03-03T07:56:18;11.00;;;8.75;;
10715;SDS011;5409;42.620;23.316;2023-03-03T07:58:47;12.07;;;8.90;;
10715;SDS011;5409;42.620;23.316;2023-03-03T08:03:56;11.35;;;8.68;;
10715;SDS011;5409;42.620;23.316;2023-03-03T08:06:29;10.88;;;8.32;;
10715;SDS011;5409;42.620;23.316;2023-03-03T08:08:59;12.10;;;8.23;;
10715;SDS011;5409;42.620;23.316;2023-03-03T08:11:26;11.20;;;8.38;;
10715;SDS011;5409;42.620;23.316;2023-03-03T08:13:53;11.60;;;7.28;;
10715;SDS011;5409;42.620;23.316;2023-03-03T08:16:29;11.75;;;8.32;;
10715;SDS011;5409;42.620;23.316;2023-03-03T08:19:01;9.73;;;8.23;;
10715;SDS011;5409;42.620;23.316;2023-03-03T08:21:28;10.40;;;8.52;;
10715;SDS011;5409;42.620;23.316;2023-03-03T08:23:56;10.15;;;8.25;;
10715;SDS011;5409;42.620;23.316;2023-03-03T08:26:23;10.20;;;7.38;;
10715;SDS011;5409;42.620;23.316;2023-03-03T08:28:49;10.18;;;8.18;;
10715;SDS011;5409;42.620;23.316;2023-03-03T08:31:16;10.43;;;8.35;;
10715;SDS011;5409;42.620;23.316;2023-03-03T08:33:43;12.25;;;8.52;;
10715;SDS011;5409;42.620;23.316;2023-03-03T08:36:11;8.90;;;7.90;;
10715;SDS011;5409;42.620;23.316;2023-03-03T08:38:38;13.32;;;7.65;;
10715;SDS011;5409;42.620;23.316;2023-03-03T08:41:04;10.52;;;9.32;;
10715;SDS011;5409;42.620;23.316;2023-03-03T08:43:31;11.93;;;10.00;;
10715;SDS011;5409;42.620;23.316;2023-03-03T08:45:58;12.77;;;10.23;;
10715;SDS011;5409;42.620;23.316;2023-03-03T08:48:25;12.25;;;9.88;;
10715;SDS011;5409;42.620;23.316;2023-03-03T08:50:52;12.43;;;9.50;;
10715;SDS011;5409;42.620;23.316;2023-03-03T08:53:20;10.35;;;8.68;;
10715;SDS011;5409;42.620;23.316;2023-03-03T08:55:46;10.38;;;7.80;;
10715;SDS011;5409;42.620;23.316;2023-03-03T08:58:13;11.60;;;7.55;;
10715;SDS011;5409;42.620;23.316;2023-03-03T09:00:39;10.68;;;7.65;;
10715;SDS011;5409;42.620;23.316;2023-03-03T09:03:06;8.70;;;7.53;;
10715;SDS011;5409;42.620;23.316;2023-03-03T09:05:33;10.68;;;8.02;;
10715;SDS011;5409;42.620;23.316;2023-03-03T09:07:59;8.90;;;8.00;;
10715;SDS011;5409;42.620;23.316;2023-03-03T09:10:28;11.93;;;8.15;;
10715;SDS011;5409;42.620;23.316;2023-03-03T09:12:56;10.82;;;8.35;;
10715;SDS011;5409;42.620;23.316;2023-03-03T09:15:25;11.35;;;9.32;;
10715;SDS011;5409;42.620;23.316;2023-03-03T09:17:53;12.30;;;8.88;;
10715;SDS011;5409;42.620;23.316;2023-03-03T09:20:21;9.43;;;8.00;;
10715;SDS011;5409;42.620;23.316;2023-03-03T09:22:49;10.50;;;8.88;;
10715;SDS011;5409;42.620;23.316;2023-03-03T09:25:17;9.75;;;8.70;;
10715;SDS011;5409;42.620;23.316;2023-03-03T09:27:48;9.30;;;7.78;;
10715;SDS011;5409;42.620;23.316;2023-03-03T09:30:26;13.80;;;8.82;;
10715;SDS011;5409;42.620;23.316;2023-03-03T09:32:53;10.32;;;8.93;;
10715;SDS011;5409;42.620;23.316;2023-03-03T09:35:33;11.00;;;8.38;;
10715;SDS011;5409;42.620;23.316;2023-03-03T09:38:01;11.18;;;8.70;;
10715;SDS011;5409;42.620;23.316;2023-03-03T09:40:35;12.20;;;8.88;;
10715;SDS011;5409;42.620;23.316;2023-03-03T09:43:06;9.15;;;8.20;;
10715;SDS011;5409;42.620;23.316;2023-03-03T09:45:39;9.38;;;8.07;;
10715;SDS011;5409;42.620;23.316;2023-03-03T09:48:18;10.38;;;8.65;;
10715;SDS011;5409;42.620;23.316;2023-03-03T09:50:52;12.43;;;8.75;;
10715;SDS011;5409;42.620;23.316;2023-03-03T09:53:30;10.18;;;8.57;;
10715;SDS011;5409;42.620;23.316;2023-03-03T09:56:01;10.50;;;9.18;;
10715;SDS011;5409;42.620;23.316;2023-03-03T09:58:38;11.25;;;9.52;;
10715;SDS011;5409;42.620;23.316;2023-03-03T10:01:32;12.48;;;9.38;;
10715;SDS011;5409;42.620;23.316;2023-03-03T10:06:44;12.15;;;10.07;;
10715;SDS011;5409;42.620;23.316;2023-03-03T10:09:28;13.15;;;10.75;;
10715;SDS011;5409;42.620;23.316;2023-03-03T10:11:57;15.20;;;10.52;;
10715;SDS011;5409;42.620;23.316;2023-03-03T10:14:32;16.25;;;11.90;;
10715;SDS011;5409;42.620;23.316;2023-03-03T10:17:08;14.00;;;11.15;;
10715;SDS011;5409;42.620;23.316;2023-03-03T10:19:44;13.63;;;10.57;;
10715;SDS011;5409;42.620;23.316;2023-03-03T10:22:18;13.10;;;11.00;;
10715;SDS011;5409;42.620;23.316;2023-03-03T10:24:52;15.25;;;12.30;;
10715;SDS011;5409;42.620;23.316;2023-03-03T10:27:33;15.07;;;12.63;;
10715;SDS011;5409;42.620;23.316;2023-03-03T10:30:06;15.35;;;12.77;;
10715;SDS011;5409;42.620;23.316;2023-03-03T10:32:39;14.30;;;11.88;;
10715;SDS011;5409;42.620;23.316;2023-03-03T10:35:15;18.65;;;14.30;;
10715;SDS011;5409;42.620;23.316;2023-03-03T10:37:47;17.20;;;13.95;;
10715;SDS011;5409;42.620;23.316;2023-03-03T10:40:16;14.85;;;12.57;;
10715;SDS011;5409;42.620;23.316;2023-03-03T10:42:59;15.90;;;13.63;;
10715;SDS011;5409;42.620;23.316;2023-03-03T10:48:16;17.10;;;13.82;;
10715;SDS011;5409;42.620;23.316;2023-03-03T10:50:49;19.15;;;14.23;;
10715;SDS011;5409;42.620;23.316;2023-03-03T10:53:20;17.33;;;14.02;;
10715;SDS011;5409;42.620;23.316;2023-03-03T10:55:49;19.10;;;14.52;;
10715;SDS011;5409;42.620;23.316;2023-03-03T10:58:22;19.15;;;13.80;;
10715;SDS011;5409;42.620;23.316;2023-03-03T11:00:51;18.13;;;14.77;;
10715;SDS011;5409;42.620;23.316;2023-03-03T11:03:36;19.08;;;15.13;;
10715;SDS011;5409;42.620;23.316;2023-03-03T11:06:08;21.27;;;15.15;;
10715;SDS011;5409;42.620;23.316;2023-03-03T11:08:39;20.38;;;14.55;;
10715;SDS011;5409;42.620;23.316;2023-03-03T11:11:09;20.40;;;14.25;;
10715;SDS011;5409;42.620;23.316;2023-03-03T11:13:41;19.38;;;14.85;;
10715;SDS011;5409;42.620;23.316;2023-03-03T11:16:13;18.00;;;13.65;;
10715;SDS011;5409;42.620;23.316;2023-03-03T11:18:50;18.73;;;14.40;;
10715;SDS011;5409;42.620;23.316;2023-03-03T11:21:19;18.92;;;13.93;;
10715;SDS011;5409;42.620;23.316;2023-03-03T11:26:34;34.15;;;17.83;;
10715;SDS011;5409;42.620;23.316;2023-03-03T11:29:09;36.72;;;20.80;;
10715;SDS011;5409;42.620;23.316;2023-03-03T11:31:40;25.60;;;16.92;;
10715;SDS011;5409;42.620;23.316;2023-03-03T11:34:12;25.92;;;16.35;;
10715;SDS011;5409;42.620;23.316;2023-03-03T11:36:43;23.63;;;16.55;;
10715;SDS011;5409;42.620;23.316;2023-03-03T11:39:13;36.05;;;19.67;;
10715;SDS011;5409;42.620;23.316;2023-03-03T11:41:41;32.03;;;18.13;;
10715;SDS011;5409;42.620;23.316;2023-03-03T11:44:16;23.30;;;15.70;;
10715;SDS011;5409;42.620;23.316;2023-03-03T11:46:44;22.60;;;16.40;;
10715;SDS011;5409;42.620;23.316;2023-03-03T11:49:15;26.48;;;17.52;;
10715;SDS011;5409;42.620;23.316;2023-03-03T11:51:46;24.80;;;16.42;;
10715;SDS011;5409;42.620;23.316;2023-03-03T11:54:14;20.00;;;15.95;;
10715;SDS011;5409;42.620;23.316;2023-03-03T11:56:43;25.58;;;18.77;;
10715;SDS011;5409;42.620;23.316;2023-03-03T11:59:14;28.70;;;19.27;;
10715;SDS011;5409;42.620;23.316;2023-03-03T12:01:43;31.75;;;21.02;;
10715;SDS011;5409;42.620;23.316;2023-03-03T12:04:12;26.27;;;18.33;;
10715;SDS011;5409;42.620;23.316;2023-03-03T12:06:43;27.70;;;18.40;;
10715;SDS011;5409;42.620;23.316;2023-03-03T12:09:19;26.30;;;17.98;;
10715;SDS011;5409;42.620;23.316;2023-03-03T12:11:49;22.92;;;17.67;;
10715;SDS011;5409;42.620;23.316;2023-03-03T12:14:27;25.60;;;17.10;;
10715;SDS011;5409;42.620;23.316;2023-03-03T12:16:57;24.98;;;18.42;;
10715;SDS011;5409;42.620;23.316;2023-03-03T12:19:32;29.58;;;20.33;;
10715;SDS011;5409;42.620;23.316;2023-03-03T12:22:05;26.50;;;19.65;;
10715;SDS011;5409;42.620;23.316;2023-03-03T12:24:35;27.35;;;19.13;;
10715;SDS011;5409;42.620;23.316;2023-03-03T12:27:07;25.23;;;18.02;;
10715;SDS011;5409;42.620;23.316;2023-03-03T12:29:38;32.17;;;21.33;;
10715;SDS011;5409;42.620;23.316;2023-03-03T12:32:13;29.98;;;20.88;;
10715;SDS011;5409;42.620;23.316;2023-03-03T12:34:46;29.92;;;21.63;;
10715;SDS011;5409;42.620;23.316;2023-03-03T12:40:04;26.58;;;20.30;;
10715;SDS011;5409;42.620;23.316;2023-03-03T12:42:35;26.60;;;18.75;;
10715;SDS011;5409;42.620;23.316;2023-03-03T12:45:07;24.92;;;19.23;;
10715;SDS011;5409;42.620;23.316;2023-03-03T12:47:37;25.95;;;19.35;;
10715;SDS011;5409;42.620;23.316;2023-03-03T12:50:12;27.35;;;19.25;;
10715;SDS011;5409;42.620;23.316;2023-03-03T12:52:46;29.65;;;20.75;;
10715;SDS011;5409;42.620;23.316;2023-03-03T12:55:17;27.48;;;20.73;;
10715;SDS011;5409;42.620;23.316;2023-03-03T12:57:47;25.33;;;18.33;;
10715;SDS011;5409;42.620;23.316;2023-03-03T13:00:21;19.05;;;15.10;;
10715;SDS011;5409;42.620;23.316;2023-03-03T13:02:51;18.33;;;14.88;;
10715;SDS011;5409;42.620;23.316;2023-03-03T13:05:23;17.42;;;14.07;;
10715;SDS011;5409;42.620;23.316;2023-03-03T13:08:06;19.88;;;14.73;;
10715;SDS011;5409;42.620;23.316;2023-03-03T13:10:40;20.33;;;15.30;;
10715;SDS011;5409;42.620;23.316;2023-03-03T13:13:10;17.00;;;13.45;;
10715;SDS011;5409;42.620;23.316;2023-03-03T13:15:38;16.92;;;13.13;;
10715;SDS011;5409;42.620;23.316;2023-03-03T13:18:16;23.13;;;14.05;;
10715;SDS011;5409;42.620;23.316;2023-03-03T13:20:48;20.65;;;16.23;;
10715;SDS011;5409;42.620;23.316;2023-03-03T13:23:18;19.42;;;16.00;;
10715;SDS011;5409;42.620;23.316;2023-03-03T13:25:50;19.75;;;14.63;;
10715;SDS011;5409;42.620;23.316;2023-03-03T13:28:20;20.90;;;15.38;;
10715;SDS011;5409;42.620;23.316;2023-03-03T13:30:48;19.52;;;15.38;;
10715;SDS011;5409;42.620;23.316;2023-03-03T13:33:16;20.35;;;14.80;;
10715;SDS011;5409;42.620;23.316;2023-03-03T13:35:47;22.77;;;18.17;;
10715;SDS011;5409;42.620;23.316;2023-03-03T13:38:17;26.02;;;18.60;;
10715;SDS011;5409;42.620;23.316;2023-03-03T13:40:47;24.20;;;17.52;;
10715;SDS011;5409;42.620;23.316;2023-03-03T13:43:16;22.27;;;16.85;;
10715;SDS011;5409;42.620;23.316;2023-03-03T13:45:48;22.65;;;17.02;;
10715;SDS011;5409;42.620;23.316;2023-03-03T13:48:21;27.15;;;20.60;;
10715;SDS011;5409;42.620;23.316;2023-03-03T13:50:51;31.23;;;20.98;;
10715;SDS011;5409;42.620;23.316;2023-03-03T13:53:26;26.85;;;19.90;;
10715;SDS011;5409;42.620;23.316;2023-03-03T13:55:55;28.52;;;20.80;;
10715;SDS011;5409;42.620;23.316;2023-03-03T13:58:28;26.98;;;20.98;;
10715;SDS011;5409;42.620;23.316;2023-03-03T14:01:02;25.35;;;19.42;;
10715;SDS011;5409;42.620;23.316;2023-03-03T14:03:36;30.92;;;22.73;;
10715;SDS011;5409;42.620;23.316;2023-03-03T14:06:07;29.50;;;21.77;;
10715;SDS011;5409;42.620;23.316;2023-03-03T14:08:42;31.83;;;22.77;;
10715;SDS011;5409;42.620;23.316;2023-03-03T14:11:09;76.53;;;23.90;;
10715;SDS011;5409;42.620;23.316;2023-03-03T14:13:40;52.17;;;24.42;;
10715;SDS011;5409;42.620;23.316;2023-03-03T14:16:08;36.15;;;23.23;;
10715;SDS011;5409;42.620;23.316;2023-03-03T14:18:38;45.80;;;25.15;;
10715;SDS011;5409;42.620;23.316;2023-03-03T14:21:06;40.08;;;26.38;;
10715;SDS011;5409;42.620;23.316;2023-03-03T14:23:38;35.85;;;24.05;;
10715;SDS011;5409;42.620;23.316;2023-03-03T14:26:07;36.65;;;25.20;;
10715;SDS011;5409;42.620;23.316;2023-03-03T14:28:37;31.83;;;23.15;;
10715;SDS011;5409;42.620;23.316;2023-03-03T14:31:13;30.88;;;21.88;;
10715;SDS011;5409;42.620;23.316;2023-03-03T14:33:40;33.13;;;23.33;;
10715;SDS011;5409;42.620;23.316;2023-03-03T14:36:10;29.60;;;21.60;;
10715;SDS011;5409;42.620;23.316;2023-03-03T14:38:40;31.52;;;22.95;;
10715;SDS011;5409;42.620;23.316;2023-03-03T14:41:12;32.80;;;22.48;;
10715;SDS011;5409;42.620;23.316;2023-03-03T14:43:40;35.33;;;22.17;;
10715;SDS011;5409;42.620;23.316;2023-03-03T14:46:21;34.08;;;23.27;;
10715;SDS011;5409;42.620;23.316;2023-03-03T14:48:49;32.75;;;22.98;;
10715;SDS011;5409;42.620;23.316;2023-03-03T14:51:22;36.25;;;25.30;;
10715;SDS011;5409;42.620;23.316;2023-03-03T14:53:49;38.75;;;25.90;;
10715;SDS011;5409;42.620;23.316;2023-03-03T14:56:19;65.00;;;27.52;;
10715;SDS011;5409;42.620;23.316;2023-03-03T14:58:49;40.25;;;27.10;;
10715;SDS011;5409;42.620;23.316;2023-03-03T15:01:21;39.85;;;25.60;;